Time;durP1;ratioP1;P1;durP2;ratioP2;P2;SDS_P1;SDS_P2;PMS_P1;PMS_P2;Temp;Humidity;BMP_temperature;BMP_pressure;BME280_temperature;BME280_humidity;BME280_pressure;Samples;Min_cycle;Max_cycle;Signal;HPM_P1;HPM_P2
2021/12/30 00:00:26;;;;;;;11.03;1.53;;;12.30;99.90;;;;;;5073661;28;20192;-73
2021/12/30 00:02:52;;;;;;;0.93;0.90;;;12.20;99.90;;;;;;5081818;28;20177;-73
2021/12/30 00:05:18;;;;;;;0.27;0.27;;;12.30;99.90;;;;;;5085698;28;20184;-73
2021/12/30 00:07:43;;;;;;;0.10;0.10;;;12.20;99.90;;;;;;5056676;28;20176;-73
2021/12/30 00:10:10;;;;;;;1.40;1.30;;;12.20;99.90;;;;;;5073088;28;20265;-73
2021/12/30 00:12:36;;;;;;;0.47;0.47;;;12.20;99.90;;;;;;5072867;28;20262;-74
2021/12/30 00:15:05;;;;;;;1.57;1.47;;;12.10;99.90;;;;;;5073127;28;20255;-74
2021/12/30 00:17:31;;;;;;;1.13;1.13;;;12.10;99.90;;;;;;5054567;28;20636;-73
2021/12/30 00:19:56;;;;;;;2.13;0.73;;;12.10;99.90;;;;;;5072786;28;20225;-74
2021/12/30 00:22:24;;;;;;;1.60;0.87;;;12.10;99.90;;;;;;5073056;28;20175;-74
2021/12/30 00:24:49;;;;;;;2.47;2.27;;;12.10;99.90;;;;;;5054771;28;20207;-74
2021/12/30 00:27:15;;;;;;;1.60;1.50;;;12.10;99.90;;;;;;5072690;28;20269;-74
2021/12/30 00:29:40;;;;;;;1.70;1.40;;;12.20;99.90;;;;;;5072724;28;20238;-74
2021/12/30 00:32:06;;;;;;;2.13;0.53;;;12.10;99.90;;;;;;5063993;28;20205;-74
2021/12/30 00:34:32;;;;;;;0.20;0.20;;;12.20;99.90;;;;;;5063930;28;20245;-74
2021/12/30 00:36:57;;;;;;;0.90;0.90;;;12.10;99.90;;;;;;5054424;28;20172;-74
2021/12/30 00:39:23;;;;;;;1.10;1.00;;;12.10;99.90;;;;;;5072283;28;20180;-73
2021/12/30 00:41:48;;;;;;;0.60;0.50;;;12.10;99.90;;;;;;5058303;28;20231;-73
2021/12/30 00:44:14;;;;;;;0.50;0.50;;;12.10;99.90;;;;;;5054454;28;20688;-74
2021/12/30 00:46:40;;;;;;;0.63;0.63;;;12.20;99.90;;;;;;5071968;28;20189;-74
2021/12/30 00:49:06;;;;;;;0.20;0.20;;;12.10;99.90;;;;;;5072109;28;20188;-74
2021/12/30 00:51:31;;;;;;;11.03;3.10;;;12.10;99.90;;;;;;5066043;28;20268;-74
2021/12/30 00:53:57;;;;;;;5.73;2.43;;;12.10;99.90;;;;;;5054337;28;20257;-74
2021/12/30 00:56:23;;;;;;;0.47;0.43;;;12.10;99.90;;;;;;5071775;28;20202;-74
2021/12/30 00:58:48;;;;;;;0.20;0.20;;;12.20;99.90;;;;;;5072155;28;20173;-75
2021/12/30 01:01:14;;;;;;;0.43;0.43;;;12.20;99.90;;;;;;5072085;28;20192;-74
2021/12/30 01:03:40;;;;;;;2.77;1.83;;;12.20;99.90;;;;;;5054266;28;20186;-73
2021/12/30 01:06:06;;;;;;;0.57;0.57;;;12.20;99.90;;;;;;5072027;28;20807;-73
2021/12/30 01:08:32;;;;;;;0.33;0.33;;;12.10;99.90;;;;;;5072727;28;20199;-74
2021/12/30 01:10:58;;;;;;;25.83;2.37;;;12.10;99.90;;;;;;5072576;28;20676;-74
2021/12/30 01:13:27;;;;;;;0.20;0.20;;;12.10;99.90;;;;;;5072830;28;20188;-74
2021/12/30 01:21:11;;;;;;;0.67;0.67;;;12.10;99.90;;;;;;5071639;28;20192;-73
2021/12/30 01:23:37;;;;;;;0.70;0.70;;;12.10;99.90;;;;;;5071831;28;20182;-74
2021/12/30 01:26:04;;;;;;;2.30;0.43;;;12.10;99.90;;;;;;5071533;28;20172;-74
2021/12/30 01:28:30;;;;;;;0.20;0.20;;;12.10;99.90;;;;;;5071684;28;20674;-74
2021/12/30 01:30:56;;;;;;;3.40;1.03;;;12.10;99.90;;;;;;5053840;28;20195;-74
2021/12/30 01:33:22;;;;;;;3.00;1.80;;;12.20;99.90;;;;;;5071339;28;20186;-74
2021/12/30 01:35:47;;;;;;;0.47;0.47;;;12.20;99.90;;;;;;5071268;28;20167;-75
2021/12/30 01:38:16;;;;;;;0.30;0.30;;;12.20;99.90;;;;;;5071476;28;20167;-74
2021/12/30 01:40:43;;;;;;;1.90;1.77;;;12.30;99.90;;;;;;5071194;28;20218;-75
2021/12/30 01:43:11;;;;;;;2.67;1.03;;;12.30;99.90;;;;;;5071467;28;20172;-74
2021/12/30 01:45:38;;;;;;;17.83;1.43;;;12.30;99.90;;;;;;5071189;28;20225;-73
2021/12/30 01:48:04;;;;;;;0.00;0.00;;;12.30;99.90;;;;;;5064355;28;20177;-73
2021/12/30 01:50:29;;;;;;;0.23;0.23;;;12.40;99.90;;;;;;5062409;28;20230;-74
2021/12/30 01:52:55;;;;;;;3.60;2.20;;;12.40;99.90;;;;;;5071151;28;20638;-74
2021/12/30 01:55:22;;;;;;;3.67;1.77;;;12.40;99.90;;;;;;5060493;28;20173;-74
2021/12/30 01:57:49;;;;;;;6.13;0.47;;;12.50;99.90;;;;;;5071064;28;20231;-73
2021/12/30 02:00:19;;;;;;;2.50;1.00;;;12.50;99.90;;;;;;5071338;28;20203;-74
2021/12/30 02:02:44;;;;;;;1.57;1.10;;;12.50;99.90;;;;;;5070739;28;20222;-73
2021/12/30 02:05:10;;;;;;;1.67;1.57;;;12.60;99.90;;;;;;5071193;28;20175;-74
2021/12/30 02:07:37;;;;;;;9.63;1.57;;;12.50;99.90;;;;;;5070989;28;20172;-74
2021/12/30 02:10:03;;;;;;;0.13;0.13;;;12.50;99.90;;;;;;5071240;28;20219;-74
2021/12/30 02:12:34;;;;;;;0.20;0.20;;;12.40;99.90;;;;;;5071065;28;20175;-74
2021/12/30 02:15:00;;;;;;;2.30;2.07;;;12.40;99.90;;;;;;5071071;28;20176;-75
2021/12/30 02:17:26;;;;;;;1.37;0.50;;;12.50;99.90;;;;;;5052801;28;20175;-74
2021/12/30 02:19:59;;;;;;;1.30;1.13;;;12.60;99.90;;;;;;5073143;28;20184;-74
2021/12/30 02:22:26;;;;;;;0.00;0.00;;;12.60;99.90;;;;;;5056656;28;20270;-74
2021/12/30 02:24:51;;;;;;;0.10;0.10;;;12.70;99.90;;;;;;5057321;28;20211;-74
2021/12/30 02:27:18;;;;;;;0.87;0.87;;;12.70;99.90;;;;;;5074967;28;20568;-74
2021/12/30 02:29:44;;;;;;;0.80;0.80;;;12.60;99.90;;;;;;5057120;28;20265;-74
2021/12/30 02:32:10;;;;;;;0.83;0.83;;;12.70;99.90;;;;;;5056861;28;20200;-74
2021/12/30 02:34:39;;;;;;;0.23;0.23;;;12.70;99.90;;;;;;5056833;28;20187;-73
2021/12/30 02:37:07;;;;;;;0.53;0.53;;;12.70;99.90;;;;;;5074633;28;20221;-73
2021/12/30 02:39:33;;;;;;;3.07;1.20;;;12.70;99.90;;;;;;5074912;28;20685;-74
2021/12/30 02:41:59;;;;;;;3.10;1.83;;;12.80;99.90;;;;;;5074348;28;20271;-74
2021/12/30 02:44:26;;;;;;;0.97;0.53;;;12.80;99.90;;;;;;5075016;28;20271;-74
2021/12/30 02:46:55;;;;;;;5.83;2.00;;;12.80;99.90;;;;;;5074202;28;20206;-74
2021/12/30 02:49:21;;;;;;;0.50;0.50;;;12.80;99.90;;;;;;5074398;28;20279;-75
2021/12/30 02:51:47;;;;;;;1.50;0.93;;;12.70;99.90;;;;;;5072349;28;20589;-75
2021/12/30 02:54:12;;;;;;;5.93;0.97;;;12.70;99.90;;;;;;5069086;28;20184;-74
2021/12/30 02:56:39;;;;;;;0.30;0.30;;;12.70;99.90;;;;;;5072120;28;20551;-74
2021/12/30 02:59:05;;;;;;;24.80;2.30;;;12.70;99.90;;;;;;5074861;28;20710;-73
2021/12/30 03:01:32;;;;;;;0.50;0.47;;;12.70;99.90;;;;;;5056509;28;20244;-74
2021/12/30 03:04:02;;;;;;;1.23;0.57;;;12.70;99.90;;;;;;5056462;28;20203;-74
2021/12/30 03:06:28;;;;;;;3.53;1.73;;;12.70;99.90;;;;;;5073882;28;20164;-73
2021/12/30 03:08:55;;;;;;;0.40;0.40;;;12.60;99.90;;;;;;5074541;28;20196;-73
2021/12/30 03:11:24;;;;;;;6.43;2.30;;;12.60;99.90;;;;;;5074144;28;20196;-74
2021/12/30 03:13:49;;;;;;;0.67;0.60;;;12.50;99.90;;;;;;5074218;28;20523;-75
2021/12/30 03:16:19;;;;;;;1.97;1.87;;;12.50;99.90;;;;;;5073938;28;20171;-74
2021/12/30 03:18:46;;;;;;;0.37;0.37;;;12.50;99.90;;;;;;5073942;28;20530;-74
2021/12/30 03:21:14;;;;;;;0.97;0.97;;;12.50;99.90;;;;;;5073595;28;20223;-74
2021/12/30 03:23:40;;;;;;;0.77;0.60;;;12.50;99.90;;;;;;5074129;28;20184;-74
2021/12/30 03:26:07;;;;;;;0.10;0.10;;;12.40;99.90;;;;;;5055757;28;20180;-74
2021/12/30 03:28:33;;;;;;;0.20;0.20;;;12.40;99.90;;;;;;5074086;28;20697;-74
2021/12/30 03:31:00;;;;;;;0.53;0.43;;;12.50;99.90;;;;;;5073552;28;20674;-74
2021/12/30 03:33:30;;;;;;;0.70;0.70;;;12.50;99.90;;;;;;5055886;28;20176;-73
2021/12/30 03:36:01;;;;;;;1.27;1.17;;;12.50;99.90;;;;;;5073592;28;20647;-74
2021/12/30 03:38:29;;;;;;;0.20;0.20;;;12.50;99.90;;;;;;5075237;28;20172;-73
2021/12/30 03:40:55;;;;;;;0.40;0.40;;;12.50;99.90;;;;;;5074542;28;20227;-73
2021/12/30 03:43:20;;;;;;;3.43;1.53;;;12.40;99.90;;;;;;5073787;28;20643;-74
2021/12/30 03:45:46;;;;;;;0.93;0.90;;;12.40;99.90;;;;;;5073327;28;20187;-75
2021/12/30 03:48:11;;;;;;;0.23;0.23;;;12.40;99.90;;;;;;5072884;28;20175;-73
2021/12/30 03:50:43;;;;;;;0.50;0.50;;;12.40;99.90;;;;;;5055726;28;20201;-74
2021/12/30 03:53:10;;;;;;;0.43;0.43;;;12.40;99.90;;;;;;5071646;28;20192;-74
2021/12/30 03:55:36;;;;;;;1.40;1.30;;;12.40;99.90;;;;;;5062101;28;20180;-74
2021/12/30 03:58:01;;;;;;;0.17;0.17;;;12.40;99.90;;;;;;5073071;28;20173;-74
2021/12/30 04:00:28;;;;;;;1.00;0.30;;;12.40;99.90;;;;;;5073490;28;20210;-74
2021/12/30 04:02:53;;;;;;;0.20;0.20;;;12.50;99.90;;;;;;5055621;28;20183;-74
2021/12/30 04:05:20;;;;;;;0.00;0.00;;;12.40;99.90;;;;;;5057187;28;20184;-75
2021/12/30 04:07:45;;;;;;;0.23;0.23;;;12.40;99.90;;;;;;5055407;28;20192;-74
2021/12/30 04:10:15;;;;;;;0.20;0.20;;;12.40;99.90;;;;;;5072867;28;20207;-74
2021/12/30 04:12:43;;;;;;;0.20;0.20;;;12.40;99.90;;;;;;5073165;28;20632;-74
2021/12/30 04:15:09;;;;;;;0.83;0.70;;;12.50;99.90;;;;;;5074897;28;20172;-74
2021/12/30 04:17:35;;;;;;;0.10;0.10;;;12.40;99.90;;;;;;5055711;28;20176;-74
2021/12/30 04:20:01;;;;;;;0.37;0.37;;;12.50;99.90;;;;;;5072832;28;20245;-74
2021/12/30 04:22:27;;;;;;;0.00;0.00;;;12.50;99.90;;;;;;5072565;28;20595;-74
2021/12/30 04:24:52;;;;;;;0.00;0.00;;;12.50;99.90;;;;;;5073040;28;20202;-75
2021/12/30 04:27:18;;;;;;;0.20;0.20;;;12.50;99.90;;;;;;5072247;28;20204;-75
2021/12/30 04:29:44;;;;;;;0.13;0.13;;;12.50;99.90;;;;;;5072792;28;20219;-75
2021/12/30 04:32:09;;;;;;;0.00;0.00;;;12.60;99.90;;;;;;5072355;28;20279;-74
2021/12/30 04:34:35;;;;;;;0.60;0.43;;;12.60;99.90;;;;;;5072654;28;20623;-74
2021/12/30 04:37:01;;;;;;;0.00;0.00;;;12.70;99.90;;;;;;5073013;28;20234;-73
2021/12/30 04:39:30;;;;;;;0.00;0.00;;;12.70;99.90;;;;;;5072896;28;20176;-73
2021/12/30 04:42:01;;;;;;;0.00;0.00;;;12.70;99.90;;;;;;5071267;28;20219;-73
2021/12/30 04:44:30;;;;;;;0.13;0.13;;;12.70;99.90;;;;;;5083765;22;20710;-72
2021/12/30 04:46:56;;;;;;;0.00;0.00;;;12.70;99.90;;;;;;5032458;28;20177;-71
2021/12/30 04:49:23;;;;;;;2.17;0.70;;;12.70;99.90;;;;;;5034193;28;20204;-71
2021/12/30 04:51:49;;;;;;;0.63;0.63;;;12.80;99.90;;;;;;5034024;28;20173;-72
2021/12/30 04:54:15;;;;;;;0.10;0.10;;;12.80;99.90;;;;;;5033901;28;20196;-72
2021/12/30 04:56:41;;;;;;;0.10;0.10;;;12.90;99.90;;;;;;5050652;28;20206;-72
2021/12/30 04:59:07;;;;;;;0.37;0.37;;;12.90;99.90;;;;;;5062018;28;20243;-72
2021/12/30 05:01:32;;;;;;;0.00;0.00;;;12.90;99.90;;;;;;5071889;28;20723;-72
2021/12/30 05:03:58;;;;;;;0.60;0.40;;;12.90;99.90;;;;;;5071907;28;20210;-72
2021/12/30 05:06:24;;;;;;;0.77;0.77;;;13.00;99.90;;;;;;5053590;28;20190;-72
2021/12/30 05:08:49;;;;;;;0.37;0.37;;;13.10;99.90;;;;;;5053253;28;20195;-72
2021/12/30 05:11:15;;;;;;;0.50;0.50;;;13.10;99.90;;;;;;5071343;28;20539;-72
2021/12/30 05:13:40;;;;;;;0.47;0.47;;;13.10;99.90;;;;;;5053680;28;20205;-72
2021/12/30 05:16:06;;;;;;;0.63;0.40;;;13.20;99.90;;;;;;5053534;28;20200;-71
2021/12/30 05:18:32;;;;;;;0.67;0.33;;;13.20;99.90;;;;;;5053568;28;20177;-72
2021/12/30 05:21:00;;;;;;;0.23;0.23;;;13.30;99.90;;;;;;5053685;28;20602;-72
2021/12/30 05:23:27;;;;;;;0.10;0.10;;;13.30;99.90;;;;;;5053355;28;20575;-72
2021/12/30 05:25:52;;;;;;;0.60;0.60;;;13.30;99.90;;;;;;5070978;28;20183;-71
2021/12/30 05:28:18;;;;;;;0.60;0.60;;;13.30;99.90;;;;;;5053590;28;20172;-72
2021/12/30 05:30:43;;;;;;;0.57;0.57;;;13.40;99.90;;;;;;5053329;28;20176;-72
2021/12/30 05:33:09;;;;;;;0.23;0.23;;;13.40;99.90;;;;;;5053478;28;20173;-72
2021/12/30 05:35:35;;;;;;;0.23;0.23;;;13.40;99.90;;;;;;5071711;28;20551;-72
2021/12/30 05:38:02;;;;;;;0.13;0.13;;;13.50;99.90;;;;;;5053343;28;20172;-72
2021/12/30 05:40:28;;;;;;;0.83;0.83;;;13.50;99.90;;;;;;5052938;28;20263;-72
2021/12/30 05:42:54;;;;;;;1.37;0.20;;;13.50;99.90;;;;;;5053319;28;20698;-72
2021/12/30 05:45:20;;;;;;;0.27;0.27;;;13.50;99.90;;;;;;5047168;28;20216;-72
2021/12/30 05:47:48;;;;;;;0.20;0.20;;;13.50;99.90;;;;;;5043517;28;20207;-74
2021/12/30 05:50:17;;;;;;;0.20;0.20;;;13.50;99.90;;;;;;5053187;28;20207;-73
2021/12/30 05:52:44;;;;;;;0.20;0.20;;;13.60;99.90;;;;;;5040668;28;20552;-74
2021/12/30 05:55:11;;;;;;;0.20;0.20;;;13.60;99.90;;;;;;5039736;28;20219;-73
2021/12/30 05:57:37;;;;;;;0.20;0.20;;;13.50;99.90;;;;;;5053176;28;20182;-73
2021/12/30 06:00:05;;;;;;;0.50;0.23;;;13.60;99.90;;;;;;5053015;28;20223;-73
2021/12/30 06:02:30;;;;;;;0.00;0.00;;;13.60;99.90;;;;;;5053049;28;20176;-72
2021/12/30 06:04:56;;;;;;;0.00;0.00;;;13.60;99.90;;;;;;5052935;28;20556;-72
2021/12/30 06:07:21;;;;;;;0.10;0.10;;;13.60;99.90;;;;;;5052232;28;20219;-72
2021/12/30 06:09:48;;;;;;;0.63;0.63;;;13.60;99.90;;;;;;5052997;28;20561;-72
2021/12/30 06:12:13;;;;;;;0.00;0.00;;;13.70;99.90;;;;;;5052925;28;20180;-72
2021/12/30 06:14:39;;;;;;;0.10;0.10;;;13.70;99.90;;;;;;5070921;28;20265;-72
2021/12/30 06:17:05;;;;;;;0.20;0.20;;;13.80;99.90;;;;;;5052784;28;20172;-72
2021/12/30 06:19:30;;;;;;;0.20;0.20;;;13.80;99.90;;;;;;5052851;28;20180;-72
2021/12/30 06:21:56;;;;;;;0.20;0.20;;;13.80;99.90;;;;;;5052951;28;20184;-72
2021/12/30 06:24:21;;;;;;;0.70;0.70;;;13.80;99.90;;;;;;5052884;28;20905;-72
2021/12/30 06:26:47;;;;;;;0.20;0.20;;;13.80;99.90;;;;;;5052991;28;20184;-71
2021/12/30 06:29:14;;;;;;;0.30;0.30;;;13.80;99.90;;;;;;5052813;28;20262;-71
2021/12/30 06:31:40;;;;;;;0.00;0.00;;;13.80;99.90;;;;;;5052954;28;20172;-71
2021/12/30 06:34:06;;;;;;;0.07;0.07;;;13.80;99.90;;;;;;5052536;28;20199;-72
2021/12/30 06:36:32;;;;;;;0.37;0.37;;;13.80;99.90;;;;;;5052680;28;20177;-71
2021/12/30 06:38:57;;;;;;;0.10;0.10;;;13.90;99.90;;;;;;5052808;28;20650;-72
2021/12/30 06:41:23;;;;;;;0.07;0.07;;;13.90;99.90;;;;;;5070912;28;20663;-71
2021/12/30 06:43:48;;;;;;;0.20;0.20;;;13.90;99.90;;;;;;5070504;28;20208;-72
2021/12/30 06:46:15;;;;;;;0.60;0.50;;;13.90;99.90;;;;;;5039192;28;20173;-71
2021/12/30 06:48:45;;;;;;;0.10;0.10;;;14.00;99.90;;;;;;5050135;28;20204;-72
2021/12/30 06:51:12;;;;;;;0.20;0.20;;;14.00;99.90;;;;;;5048756;28;20182;-72
2021/12/30 06:53:38;;;;;;;0.13;0.13;;;14.00;99.90;;;;;;5055664;28;20184;-72
2021/12/30 06:56:04;;;;;;;0.57;0.57;;;14.00;99.90;;;;;;5043834;28;20188;-71
2021/12/30 06:58:29;;;;;;;0.43;0.43;;;14.00;99.90;;;;;;5070388;28;20173;-72
2021/12/30 07:00:55;;;;;;;1.00;0.63;;;14.00;99.90;;;;;;5052672;28;20169;-72
2021/12/30 07:03:21;;;;;;;0.27;0.27;;;14.00;99.90;;;;;;5070195;28;20719;-72
2021/12/30 07:05:46;;;;;;;0.10;0.10;;;13.90;99.90;;;;;;5054251;28;20184;-70
2021/12/30 07:08:12;;;;;;;0.30;0.20;;;14.00;99.90;;;;;;5056349;28;20208;-73
2021/12/30 07:10:38;;;;;;;0.03;0.03;;;14.00;99.90;;;;;;5074178;28;20637;-72
2021/12/30 07:13:04;;;;;;;0.10;0.10;;;14.00;99.90;;;;;;5074005;28;20184;-73
2021/12/30 07:15:29;;;;;;;0.13;0.10;;;14.00;99.90;;;;;;5074319;28;20655;-73
2021/12/30 07:17:55;;;;;;;0.10;0.10;;;14.00;99.90;;;;;;5055069;28;20183;-72
2021/12/30 07:20:20;;;;;;;0.10;0.10;;;14.00;99.90;;;;;;5046481;28;20177;-73
2021/12/30 07:22:46;;;;;;;0.53;0.47;;;14.10;99.90;;;;;;5055824;28;20177;-73
2021/12/30 07:25:16;;;;;;;0.43;0.43;;;14.00;99.90;;;;;;5055865;28;20192;-72
2021/12/30 07:27:44;;;;;;;0.03;0.03;;;14.00;99.90;;;;;;5055491;28;20663;-73
2021/12/30 07:30:10;;;;;;;0.10;0.10;;;14.00;99.90;;;;;;5073543;28;20255;-72
2021/12/30 07:32:36;;;;;;;0.10;0.10;;;14.00;99.90;;;;;;5055440;28;20729;-73
2021/12/30 07:35:02;;;;;;;0.30;0.30;;;14.00;99.90;;;;;;5054796;28;20204;-73
2021/12/30 07:37:27;;;;;;;0.00;0.00;;;14.00;99.90;;;;;;5055647;28;20547;-72
2021/12/30 07:39:53;;;;;;;0.10;0.10;;;14.10;99.90;;;;;;5073716;28;20180;-73
2021/12/30 07:42:19;;;;;;;0.00;0.00;;;14.10;99.90;;;;;;5074084;28;20702;-72
2021/12/30 07:44:44;;;;;;;0.20;0.20;;;14.10;99.90;;;;;;5054294;28;20219;-73
2021/12/30 07:47:10;;;;;;;0.20;0.20;;;14.10;99.90;;;;;;5040774;28;20203;-72
2021/12/30 07:49:36;;;;;;;0.17;0.17;;;14.10;99.90;;;;;;5055440;28;20752;-72
2021/12/30 07:52:03;;;;;;;0.37;0.20;;;14.10;99.90;;;;;;5047437;28;20181;-73
2021/12/30 07:54:29;;;;;;;0.20;0.20;;;14.10;99.90;;;;;;5039452;28;20681;-72
2021/12/30 07:56:54;;;;;;;0.00;0.00;;;14.10;99.90;;;;;;5055962;28;20183;-72
2021/12/30 07:59:20;;;;;;;0.20;0.20;;;14.00;99.90;;;;;;5074717;28;20212;-73
2021/12/30 08:01:45;;;;;;;1.70;0.80;;;14.10;99.90;;;;;;5066780;28;20702;-72
2021/12/30 08:04:11;;;;;;;0.07;0.07;;;14.10;99.90;;;;;;5041953;28;20197;-72
2021/12/30 08:06:36;;;;;;;0.37;0.20;;;14.10;99.90;;;;;;5055948;28;20226;-73
2021/12/30 08:09:03;;;;;;;0.10;0.10;;;14.10;99.90;;;;;;5049303;28;20216;-73
2021/12/30 08:11:28;;;;;;;0.20;0.10;;;14.20;99.90;;;;;;5058964;28;20176;-73
2021/12/30 08:13:54;;;;;;;0.10;0.10;;;14.20;99.90;;;;;;5072145;28;20201;-72
2021/12/30 08:16:19;;;;;;;0.10;0.10;;;14.20;99.90;;;;;;5053523;28;20184;-73
2021/12/30 08:18:45;;;;;;;0.10;0.10;;;14.30;99.90;;;;;;5072361;28;20176;-73
2021/12/30 08:21:11;;;;;;;0.20;0.20;;;14.20;99.90;;;;;;5054004;28;20238;-72
2021/12/30 08:23:37;;;;;;;0.10;0.10;;;14.20;99.90;;;;;;5072183;28;20188;-73
2021/12/30 08:26:06;;;;;;;0.00;0.00;;;14.30;99.90;;;;;;5049724;28;20185;-72
2021/12/30 08:28:31;;;;;;;0.20;0.20;;;14.20;99.90;;;;;;5046451;28;20187;-73
2021/12/30 08:30:58;;;;;;;0.13;0.13;;;14.20;99.90;;;;;;5072557;28;20184;-71
2021/12/30 08:33:24;;;;;;;0.30;0.30;;;14.30;99.90;;;;;;5053896;28;20267;-72
2021/12/30 08:35:50;;;;;;;0.10;0.10;;;14.30;99.90;;;;;;5072069;28;20255;-72
2021/12/30 08:38:17;;;;;;;0.20;0.20;;;14.30;99.90;;;;;;5072068;28;20173;-73
2021/12/30 08:40:45;;;;;;;1.30;0.30;;;14.30;99.90;;;;;;5072212;28;20602;-72
2021/12/30 08:43:13;;;;;;;0.10;0.10;;;14.30;99.90;;;;;;5072303;28;20275;-73
2021/12/30 08:45:39;;;;;;;0.00;0.00;;;14.30;99.90;;;;;;5045604;28;20217;-72
2021/12/30 08:48:06;;;;;;;0.10;0.10;;;14.30;99.90;;;;;;5047191;28;20551;-73
2021/12/30 08:50:31;;;;;;;2.60;0.70;;;14.30;99.90;;;;;;5053662;28;20257;-72
2021/12/30 08:52:57;;;;;;;0.10;0.10;;;14.30;99.90;;;;;;5056152;28;20172;-72
2021/12/30 08:55:23;;;;;;;0.30;0.30;;;14.30;99.90;;;;;;5042162;28;20204;-72
2021/12/30 08:57:50;;;;;;;0.23;0.23;;;14.30;99.90;;;;;;5054013;28;20326;-71
2021/12/30 09:00:25;;;;;;;0.10;0.10;;;14.30;99.90;;;;;;5053894;28;20275;-73
2021/12/30 09:02:53;;;;;;;0.20;0.20;;;14.40;99.90;;;;;;5053745;28;20237;-73
2021/12/30 09:05:19;;;;;;;0.00;0.00;;;14.40;99.90;;;;;;5053802;28;20200;-72
2021/12/30 09:07:46;;;;;;;0.30;0.30;;;14.50;99.90;;;;;;5053624;28;20180;-73
2021/12/30 09:10:14;;;;;;;0.30;0.30;;;14.50;99.90;;;;;;5071628;28;20287;-71
2021/12/30 09:12:43;;;;;;;0.10;0.10;;;14.50;99.90;;;;;;5071945;28;20543;-72
2021/12/30 09:15:10;;;;;;;0.13;0.10;;;14.50;99.90;;;;;;5071375;28;20189;-71
2021/12/30 09:17:36;;;;;;;0.10;0.10;;;14.50;99.90;;;;;;5071348;28;20165;-73
2021/12/30 09:20:03;;;;;;;0.10;0.10;;;14.60;99.90;;;;;;5071754;28;20169;-72
2021/12/30 09:22:28;;;;;;;0.10;0.10;;;14.60;99.90;;;;;;5071405;28;20184;-73
2021/12/30 09:24:54;;;;;;;0.10;0.10;;;14.70;99.90;;;;;;5071347;28;20202;-73
2021/12/30 09:27:19;;;;;;;0.00;0.00;;;14.70;99.90;;;;;;5070955;28;20173;-72
2021/12/30 09:29:45;;;;;;;1.80;0.80;;;14.80;99.90;;;;;;5071261;28;20300;-73
2021/12/30 09:32:11;;;;;;;0.63;0.63;;;14.80;99.90;;;;;;5051060;28;20184;-72
2021/12/30 09:34:36;;;;;;;0.20;0.20;;;14.80;99.90;;;;;;5058060;28;20189;-72
2021/12/30 09:37:02;;;;;;;0.00;0.00;;;14.80;99.90;;;;;;5054278;28;20260;-73
2021/12/30 09:39:28;;;;;;;0.73;0.40;;;14.80;99.90;;;;;;5051397;28;20166;-71
2021/12/30 09:41:54;;;;;;;0.10;0.10;;;14.80;99.90;;;;;;5066174;28;20512;-72
2021/12/30 09:44:21;;;;;;;0.17;0.17;;;14.80;99.90;;;;;;5053099;28;20213;-73
2021/12/30 09:46:47;;;;;;;0.40;0.30;;;14.80;99.90;;;;;;5054890;28;20260;-73
2021/12/30 09:49:17;;;;;;;0.10;0.10;;;14.90;99.90;;;;;;5070615;28;20275;-73
2021/12/30 09:51:44;;;;;;;0.10;0.10;;;14.90;99.90;;;;;;5047010;28;20822;-73
2021/12/30 09:54:10;;;;;;;0.00;0.00;;;15.00;99.90;;;;;;5052470;28;20207;-73
2021/12/30 09:56:36;;;;;;;0.10;0.10;;;15.00;99.90;;;;;;5048413;28;20226;-72
2021/12/30 09:59:02;;;;;;;1.40;0.20;;;15.10;99.90;;;;;;5070205;28;20201;-73
2021/12/30 10:01:28;;;;;;;0.00;0.00;;;15.10;99.90;;;;;;5052998;28;20182;-73
2021/12/30 10:04:00;;;;;;;0.00;0.00;;;15.20;99.90;;;;;;5070766;28;20213;-72
2021/12/30 10:06:26;;;;;;;0.10;0.10;;;15.20;99.90;;;;;;5052921;28;20178;-73
2021/12/30 10:08:57;;;;;;;0.63;0.63;;;15.10;99.90;;;;;;5052733;28;20193;-72
2021/12/30 10:11:24;;;;;;;0.17;0.17;;;15.20;99.90;;;;;;5052863;28;20181;-72
2021/12/30 10:13:52;;;;;;;0.00;0.00;;;15.10;99.90;;;;;;5070695;28;20602;-71
2021/12/30 10:16:18;;;;;;;0.10;0.10;;;15.10;99.90;;;;;;5070467;28;20174;-73
2021/12/30 10:18:51;;;;;;;1.03;0.53;;;15.10;99.90;;;;;;5070778;28;20182;-72
2021/12/30 10:21:30;;;;;;;0.20;0.20;;;15.10;99.90;;;;;;5070887;28;20257;-72
2021/12/30 10:24:03;;;;;;;0.10;0.10;;;15.10;99.90;;;;;;5052525;28;20642;-72
2021/12/30 10:26:28;;;;;;;0.10;0.10;;;15.10;99.90;;;;;;5052508;28;20182;-72
2021/12/30 10:28:56;;;;;;;0.10;0.10;;;15.10;99.90;;;;;;5070694;28;20199;-72
2021/12/30 10:31:30;;;;;;;0.17;0.17;;;15.10;99.90;;;;;;5070792;28;20476;-72
2021/12/30 10:34:09;;;;;;;0.10;0.10;;;15.10;99.90;;;;;;5070566;28;20247;-73
2021/12/30 10:36:50;;;;;;;0.50;0.30;;;15.20;99.90;;;;;;5065732;28;20202;-73
2021/12/30 10:39:29;;;;;;;0.20;0.20;;;15.20;99.90;;;;;;5033859;28;20182;-73
2021/12/30 10:42:21;;;;;;;0.93;0.93;;;15.20;99.90;;;;;;5055580;28;20230;-72
2021/12/30 10:44:50;;;;;;;0.20;0.20;;;15.30;99.90;;;;;;5056755;28;20725;-71
2021/12/30 10:47:18;;;;;;;1.03;0.53;;;15.20;99.90;;;;;;5037857;28;20183;-71
2021/12/30 10:49:54;;;;;;;0.10;0.10;;;15.20;99.90;;;;;;5042122;28;20308;-72
2021/12/30 10:52:20;;;;;;;0.00;0.00;;;15.20;99.90;;;;;;5072049;22;20230;-73
2021/12/30 10:54:46;;;;;;;0.00;0.00;;;15.30;99.90;;;;;;5042559;28;20191;-73
2021/12/30 10:57:11;;;;;;;0.30;0.30;;;15.30;99.90;;;;;;5037555;28;20174;-73
2021/12/30 10:59:47;;;;;;;0.13;0.13;;;15.30;99.90;;;;;;5037597;28;20175;-73
2021/12/30 11:02:21;;;;;;;0.10;0.10;;;15.30;99.90;;;;;;5038043;28;20229;-74
2021/12/30 11:04:54;;;;;;;0.20;0.20;;;15.30;99.90;;;;;;5038537;28;20431;-73
2021/12/30 11:07:25;;;;;;;0.20;0.20;;;15.40;99.90;;;;;;5038600;28;20194;-74
2021/12/30 11:09:56;;;;;;;0.20;0.20;;;15.40;99.90;;;;;;5020857;28;20880;-73
2021/12/30 11:12:31;;;;;;;0.10;0.10;;;15.40;99.90;;;;;;5037091;28;20203;-74
2021/12/30 11:15:00;;;;;;;0.97;0.97;;;15.40;99.90;;;;;;5039631;28;20186;-74
2021/12/30 11:17:33;;;;;;;0.00;0.00;;;15.50;99.90;;;;;;5038090;28;20655;-72
2021/12/30 11:20:04;;;;;;;0.10;0.10;;;15.40;99.90;;;;;;5038816;28;20183;-73
2021/12/30 11:22:32;;;;;;;0.37;0.37;;;15.40;99.90;;;;;;5039359;28;20674;-74
2021/12/30 11:25:00;;;;;;;0.77;0.77;;;15.40;99.90;;;;;;5039138;28;20180;-72
2021/12/30 11:27:28;;;;;;;0.63;0.63;;;15.40;99.90;;;;;;5038958;28;20187;-73
2021/12/30 11:30:18;;;;;;;1.63;1.40;;;15.40;99.90;;;;;;5040666;28;20229;-74
2021/12/30 11:32:48;;;;;;;0.97;0.97;;;15.60;99.90;;;;;;5040674;28;20203;-74
2021/12/30 11:35:15;;;;;;;0.43;0.43;;;15.50;99.90;;;;;;5043007;28;20164;-73
2021/12/30 11:37:41;;;;;;;0.10;0.10;;;15.70;99.90;;;;;;5045227;28;20180;-73
2021/12/30 11:40:10;;;;;;;0.43;0.33;;;15.80;99.90;;;;;;5048410;28;20191;-74
2021/12/30 11:42:38;;;;;;;2.37;1.30;;;15.80;99.90;;;;;;5043729;28;20195;-72
2021/12/30 11:45:28;;;;;;;0.50;0.50;;;15.80;99.90;;;;;;5053326;28;20179;-74
2021/12/30 11:48:05;;;;;;;0.33;0.20;;;15.80;99.90;;;;;;5057803;28;20178;-74
2021/12/30 11:50:34;;;;;;;0.20;0.20;;;15.90;99.90;;;;;;5057904;28;20215;-72
2021/12/30 11:53:11;;;;;;;0.37;0.37;;;16.10;99.90;;;;;;5045643;28;20684;-74
2021/12/30 11:55:49;;;;;;;0.30;0.30;;;16.20;99.90;;;;;;5037556;28;20212;-72
2021/12/30 11:58:40;;;;;;;0.30;0.30;;;16.30;99.90;;;;;;5038524;28;20214;-74
2021/12/30 12:01:24;;;;;;;1.00;0.50;;;16.20;99.90;;;;;;5039479;28;20185;-73
2021/12/30 12:03:58;;;;;;;0.57;0.57;;;16.30;99.90;;;;;;5041316;28;20192;-74
2021/12/30 12:06:24;;;;;;;0.37;0.37;;;16.10;99.90;;;;;;5038842;28;20221;-74
2021/12/30 12:08:52;;;;;;;0.10;0.10;;;16.00;99.90;;;;;;5040514;28;22147;-72
2021/12/30 12:11:21;;;;;;;0.40;0.20;;;16.10;99.90;;;;;;5041549;28;20188;-73
2021/12/30 12:13:48;;;;;;;0.40;0.40;;;16.00;99.90;;;;;;5046304;28;20233;-73
2021/12/30 12:16:40;;;;;;;0.20;0.20;;;16.00;99.90;;;;;;5046874;28;20184;-72
2021/12/30 12:19:08;;;;;;;1.03;0.67;;;16.00;99.90;;;;;;5040633;28;20189;-73
2021/12/30 12:21:45;;;;;;;0.07;0.07;;;16.10;99.90;;;;;;5056504;28;20208;-74
2021/12/30 12:24:22;;;;;;;0.40;0.40;;;16.20;99.90;;;;;;5056639;28;20683;-72
2021/12/30 12:26:49;;;;;;;0.50;0.43;;;16.10;99.90;;;;;;5055646;28;20210;-74
2021/12/30 12:29:43;;;;;;;0.10;0.10;;;16.10;99.90;;;;;;5053815;28;20215;-73
2021/12/30 12:32:16;;;;;;;0.00;0.00;;;16.10;99.90;;;;;;5056561;28;20201;-73
2021/12/30 12:34:50;;;;;;;0.00;0.00;;;16.10;99.90;;;;;;5056006;28;20170;-72
2021/12/30 12:37:39;;;;;;;0.10;0.10;;;16.00;99.90;;;;;;5055907;28;20179;-74
2021/12/30 12:40:25;;;;;;;0.10;0.10;;;16.00;99.90;;;;;;5055350;28;20187;-73
2021/12/30 12:42:53;;;;;;;0.50;0.47;;;16.00;99.90;;;;;;5055620;28;20231;-74
2021/12/30 12:45:25;;;;;;;1.20;0.73;;;15.90;99.90;;;;;;5059065;28;20187;-74
2021/12/30 12:48:17;;;;;;;0.77;0.77;;;15.90;99.90;;;;;;5059747;28;20179;-74
2021/12/30 12:50:50;;;;;;;1.07;0.93;;;15.90;99.90;;;;;;5060790;28;20195;-73
2021/12/30 12:53:24;;;;;;;0.43;0.43;;;15.90;99.90;;;;;;5044665;28;20219;-73